Time;durP1;ratioP1;P1;durP2;ratioP2;P2;SDS_P1;SDS_P2;PMS_P1;PMS_P2;Temp;Humidity;BMP_temperature;BMP_pressure;BME280_temperature;BME280_humidity;BME280_pressure;Samples;Min_cycle;Max_cycle;Signal;HPM_P1;HPM_P2
2021/12/09 00:02:56;;;;;;;22.73;18.10;;;2.90;99.90;;;;;;6227982;28;20468;-67
2021/12/09 00:06:00;;;;;;;22.77;18.70;;;2.90;99.90;;;;;;6228294;28;20472;-66
2021/12/09 00:09:08;;;;;;;21.20;18.53;;;2.90;99.90;;;;;;6227990;28;20475;-66
2021/12/09 00:12:13;;;;;;;21.37;18.63;;;2.80;99.90;;;;;;6218733;28;20473;-67
2021/12/09 00:15:16;;;;;;;27.27;20.20;;;2.80;99.90;;;;;;6242682;28;20478;-66
2021/12/09 00:18:19;;;;;;;21.40;18.40;;;2.80;99.90;;;;;;6227041;28;20932;-67
2021/12/09 00:21:22;;;;;;;23.17;19.00;;;2.70;99.90;;;;;;6227809;28;20499;-68
2021/12/09 00:24:26;;;;;;;26.17;19.20;;;2.70;99.90;;;;;;6228353;28;20789;-66
2021/12/09 00:27:31;;;;;;;27.90;20.80;;;2.70;99.90;;;;;;6226925;28;20971;-67
2021/12/09 00:30:35;;;;;;;23.87;20.60;;;2.70;99.90;;;;;;6227564;28;20476;-64
2021/12/09 00:33:43;;;;;;;28.33;18.97;;;2.70;99.90;;;;;;6226108;28;20499;-64
2021/12/09 00:36:57;;;;;;;25.10;20.63;;;2.70;99.90;;;;;;6225888;28;20486;-66
2021/12/09 00:40:00;;;;;;;22.47;19.70;;;2.70;99.90;;;;;;6226410;28;20479;-65
2021/12/09 00:43:05;;;;;;;24.70;21.30;;;2.70;99.90;;;;;;6227560;28;20469;-65
2021/12/09 00:46:10;;;;;;;22.73;19.00;;;2.70;99.90;;;;;;6228267;28;20487;-65
2021/12/09 00:49:13;;;;;;;22.47;18.97;;;2.70;99.90;;;;;;6227388;28;20801;-65
2021/12/09 00:52:16;;;;;;;22.43;18.93;;;2.70;99.90;;;;;;6228059;28;20467;-65
2021/12/09 00:55:20;;;;;;;24.37;18.67;;;2.70;99.90;;;;;;6227770;28;20480;-65
2021/12/09 00:58:25;;;;;;;24.10;19.30;;;2.80;99.90;;;;;;6226842;28;20464;-65
2021/12/09 01:01:28;;;;;;;20.97;18.70;;;2.80;99.90;;;;;;6228881;28;20464;-65
2021/12/09 01:04:31;;;;;;;22.10;19.77;;;2.90;99.90;;;;;;6226666;28;20518;-66
2021/12/09 01:07:36;;;;;;;21.77;18.50;;;2.90;99.90;;;;;;6226603;28;20483;-64
2021/12/09 01:10:40;;;;;;;22.53;19.23;;;2.90;99.90;;;;;;6226307;28;20479;-64
2021/12/09 01:13:44;;;;;;;25.50;19.13;;;2.90;99.90;;;;;;6226378;28;20479;-64
2021/12/09 01:16:48;;;;;;;20.40;18.20;;;2.90;99.90;;;;;;6226170;28;20476;-65
2021/12/09 01:19:52;;;;;;;22.83;17.57;;;2.90;99.90;;;;;;6226014;28;20471;-64
2021/12/09 01:22:58;;;;;;;20.47;17.57;;;2.90;99.90;;;;;;6226124;28;20998;-67
2021/12/09 01:26:03;;;;;;;23.53;17.47;;;2.80;99.90;;;;;;6232117;28;20475;-67
2021/12/09 01:29:14;;;;;;;19.80;16.03;;;2.80;99.90;;;;;;6259769;28;20490;-66
2021/12/09 01:32:24;;;;;;;18.43;15.50;;;2.70;99.90;;;;;;6261343;28;20476;-66
2021/12/09 01:35:31;;;;;;;19.10;14.93;;;2.80;99.90;;;;;;6236519;28;20487;-66
2021/12/09 01:38:34;;;;;;;18.83;15.67;;;2.90;99.90;;;;;;6227342;28;20482;-65
2021/12/09 01:41:38;;;;;;;17.87;15.70;;;3.00;99.90;;;;;;6227522;28;20523;-66
2021/12/09 01:44:42;;;;;;;17.90;15.60;;;3.00;99.90;;;;;;6205493;28;20460;-66
2021/12/09 01:47:46;;;;;;;19.40;15.20;;;3.00;99.90;;;;;;6201249;28;20484;-66
2021/12/09 01:50:51;;;;;;;20.70;16.17;;;3.00;99.90;;;;;;6200943;28;20447;-66
2021/12/09 01:53:54;;;;;;;17.90;15.90;;;3.00;99.90;;;;;;6200759;28;20440;-66
2021/12/09 01:56:57;;;;;;;19.73;17.17;;;3.00;99.90;;;;;;6200961;28;20471;-66
2021/12/09 02:00:02;;;;;;;19.40;15.57;;;2.90;99.90;;;;;;6225753;28;20967;-66
2021/12/09 02:03:06;;;;;;;18.40;16.20;;;2.90;99.90;;;;;;6225662;28;20952;-67
2021/12/09 02:06:10;;;;;;;17.63;14.47;;;2.80;99.90;;;;;;6225577;28;20476;-66
2021/12/09 02:09:15;;;;;;;20.37;18.13;;;2.80;99.90;;;;;;6225610;28;20947;-66
2021/12/09 02:12:18;;;;;;;20.20;16.63;;;2.70;99.90;;;;;;6225445;28;20484;-66
2021/12/09 02:15:24;;;;;;;19.70;17.60;;;2.70;99.90;;;;;;6226080;28;20487;-66
2021/12/09 02:18:28;;;;;;;19.50;15.73;;;2.70;99.90;;;;;;6226162;28;20475;-66
2021/12/09 02:21:35;;;;;;;18.10;15.50;;;2.70;99.90;;;;;;6220943;28;20471;-66
2021/12/09 02:24:38;;;;;;;18.97;15.63;;;2.70;99.90;;;;;;6225281;28;20468;-66
2021/12/09 02:27:42;;;;;;;22.83;17.90;;;2.70;99.90;;;;;;6225069;28;20523;-66
2021/12/09 02:30:45;;;;;;;19.23;14.20;;;2.80;99.90;;;;;;6224771;28;20990;-66
2021/12/09 02:33:48;;;;;;;16.00;14.30;;;2.80;99.90;;;;;;6224811;28;20923;-67
2021/12/09 02:36:53;;;;;;;18.30;14.40;;;2.90;99.90;;;;;;6225576;28;20464;-66
2021/12/09 02:39:57;;;;;;;18.60;16.70;;;2.90;99.90;;;;;;6224987;28;20467;-66
2021/12/09 02:43:00;;;;;;;16.27;13.90;;;3.00;99.90;;;;;;6229280;28;20478;-66
2021/12/09 02:46:03;;;;;;;15.87;13.57;;;3.00;99.90;;;;;;6229860;28;20480;-66
2021/12/09 02:49:09;;;;;;;16.77;14.73;;;3.00;99.90;;;;;;6229531;28;21002;-66
2021/12/09 02:52:14;;;;;;;17.47;14.70;;;3.00;99.90;;;;;;6230492;28;20475;-67
2021/12/09 02:55:17;;;;;;;15.33;13.83;;;3.10;99.90;;;;;;6230415;28;20538;-67
2021/12/09 02:58:20;;;;;;;16.87;14.33;;;3.10;99.90;;;;;;6230017;28;20490;-67
2021/12/09 03:01:26;;;;;;;19.50;14.30;;;3.10;99.90;;;;;;6229342;28;20471;-66
2021/12/09 03:04:42;;;;;;;20.60;15.53;;;3.10;99.90;;;;;;6229308;28;20817;-66
2021/12/09 03:07:47;;;;;;;19.40;14.40;;;3.10;99.90;;;;;;6229337;28;20980;-66
2021/12/09 03:10:51;;;;;;;16.60;12.73;;;3.10;99.90;;;;;;6229238;28;20849;-66
2021/12/09 03:13:54;;;;;;;18.47;13.20;;;3.10;99.90;;;;;;6229250;28;20984;-66
2021/12/09 03:16:57;;;;;;;16.20;13.00;;;3.10;99.90;;;;;;6229380;28;20476;-65
2021/12/09 03:20:01;;;;;;;15.30;13.30;;;3.10;99.90;;;;;;6229702;28;20471;-63
2021/12/09 03:23:05;;;;;;;14.73;13.13;;;3.10;99.90;;;;;;6230316;28;20479;-65
2021/12/09 03:26:09;;;;;;;15.67;12.50;;;3.00;99.90;;;;;;6229879;28;20486;-68
2021/12/09 03:29:13;;;;;;;19.03;14.23;;;3.00;99.90;;;;;;6221578;28;20488;-68
2021/12/09 03:32:19;;;;;;;22.67;15.70;;;2.90;99.90;;;;;;6228935;28;20476;-64
2021/12/09 03:35:22;;;;;;;14.13;12.60;;;2.90;99.90;;;;;;6228609;28;20468;-65
2021/12/09 03:38:28;;;;;;;14.20;12.10;;;2.90;99.90;;;;;;6228548;28;20468;-66
2021/12/09 03:41:31;;;;;;;16.60;12.13;;;2.90;99.90;;;;;;6228652;28;20538;-66
2021/12/09 03:44:35;;;;;;;16.00;12.87;;;2.80;99.90;;;;;;6228693;28;20803;-66
2021/12/09 03:47:39;;;;;;;15.60;12.27;;;2.80;99.90;;;;;;6227937;28;20472;-65
2021/12/09 03:50:43;;;;;;;15.27;12.77;;;2.80;99.90;;;;;;6229161;28;20475;-64
2021/12/09 03:53:48;;;;;;;13.90;11.67;;;2.80;99.90;;;;;;6227555;28;20885;-64
2021/12/09 03:56:51;;;;;;;17.40;12.60;;;2.80;99.90;;;;;;6228156;28;20496;-64
2021/12/09 03:59:55;;;;;;;13.77;12.30;;;2.90;99.90;;;;;;6228344;28;20436;-64
2021/12/09 04:02:58;;;;;;;17.10;13.10;;;2.90;99.90;;;;;;6227891;28;20479;-64
2021/12/09 04:06:02;;;;;;;12.93;11.10;;;2.90;99.90;;;;;;6227937;28;20460;-64
2021/12/09 04:09:09;;;;;;;13.27;11.97;;;2.90;99.90;;;;;;6228159;28;20472;-65
2021/12/09 04:12:14;;;;;;;15.23;11.87;;;2.80;99.90;;;;;;6227332;28;20491;-64
2021/12/09 04:15:17;;;;;;;13.03;11.17;;;2.80;99.90;;;;;;6232357;28;20463;-67
2021/12/09 04:18:20;;;;;;;14.10;11.60;;;2.70;99.90;;;;;;6230494;28;20468;-66
2021/12/09 04:21:24;;;;;;;14.17;11.80;;;2.70;99.90;;;;;;6230284;28;20496;-64
2021/12/09 04:24:28;;;;;;;14.53;11.67;;;2.70;99.90;;;;;;6227251;28;20498;-65
2021/12/09 04:27:32;;;;;;;13.30;11.13;;;2.70;99.90;;;;;;6228216;28;20793;-68
2021/12/09 04:30:35;;;;;;;13.03;10.47;;;2.80;99.90;;;;;;6228071;28;20464;-68
2021/12/09 04:33:39;;;;;;;14.03;11.27;;;2.80;99.90;;;;;;6231553;28;20476;-67
2021/12/09 04:36:42;;;;;;;12.67;11.37;;;2.90;99.90;;;;;;6231438;28;20543;-68
2021/12/09 04:39:47;;;;;;;11.13;9.93;;;2.80;99.90;;;;;;6228764;28;20801;-67
2021/12/09 04:42:50;;;;;;;14.23;11.27;;;2.70;99.90;;;;;;6227018;28;20467;-64
2021/12/09 04:45:53;;;;;;;13.10;11.70;;;2.70;99.90;;;;;;6227283;28;20498;-64
2021/12/09 04:48:57;;;;;;;14.60;11.73;;;2.60;99.90;;;;;;6228461;28;20996;-67
2021/12/09 04:52:01;;;;;;;15.47;12.33;;;2.60;99.90;;;;;;6227275;28;20541;-66
2021/12/09 04:55:07;;;;;;;16.50;11.97;;;2.70;99.90;;;;;;6227221;28;20482;-64
2021/12/09 04:58:10;;;;;;;12.30;10.90;;;2.80;99.90;;;;;;6226354;28;20815;-65
2021/12/09 05:01:14;;;;;;;14.60;10.87;;;2.80;99.90;;;;;;6226844;28;20464;-64
2021/12/09 05:04:18;;;;;;;12.13;10.17;;;2.80;99.90;;;;;;6225766;28;20483;-64
2021/12/09 05:07:21;;;;;;;12.73;11.10;;;2.90;99.90;;;;;;6226742;28;20983;-64
2021/12/09 05:10:25;;;;;;;12.47;11.00;;;2.90;99.90;;;;;;6226207;28;20793;-64
2021/12/09 05:13:30;;;;;;;11.70;9.90;;;2.90;99.90;;;;;;6226683;28;20472;-64
2021/12/09 05:16:34;;;;;;;12.47;11.07;;;2.90;99.90;;;;;;6226400;28;20480;-63
2021/12/09 05:19:37;;;;;;;11.03;9.80;;;3.00;99.90;;;;;;6226765;28;20464;-63
2021/12/09 05:22:41;;;;;;;14.10;9.97;;;2.90;99.90;;;;;;6226468;28;20487;-63
2021/12/09 05:25:45;;;;;;;10.80;9.70;;;2.90;99.90;;;;;;6226101;28;20476;-66
2021/12/09 05:28:54;;;;;;;12.10;9.97;;;2.90;99.90;;;;;;6226710;28;20474;-67
2021/12/09 05:32:10;;;;;;;14.43;12.50;;;2.90;99.90;;;;;;6228954;28;20469;-63
2021/12/09 05:35:14;;;;;;;11.43;10.20;;;2.90;99.90;;;;;;6226511;28;20475;-64
2021/12/09 05:38:17;;;;;;;12.70;10.63;;;2.90;99.90;;;;;;6225922;28;20472;-64
2021/12/09 05:41:21;;;;;;;14.83;10.17;;;2.90;99.90;;;;;;6226112;28;20468;-64
2021/12/09 05:44:24;;;;;;;16.00;10.33;;;3.00;99.90;;;;;;6227044;28;20468;-67
2021/12/09 05:47:29;;;;;;;17.80;10.03;;;2.90;99.90;;;;;;6228768;28;20479;-67
2021/12/09 05:50:33;;;;;;;13.57;10.93;;;2.90;99.90;;;;;;6226245;28;20475;-66
2021/12/09 05:53:36;;;;;;;16.93;11.20;;;3.00;99.90;;;;;;6226070;28;20471;-66
2021/12/09 05:56:41;;;;;;;13.30;11.03;;;3.00;99.90;;;;;;6225532;28;20495;-66
2021/12/09 05:59:44;;;;;;;13.23;11.60;;;3.00;99.90;;;;;;6226383;28;20460;-66
2021/12/09 06:02:48;;;;;;;12.77;11.57;;;2.90;99.90;;;;;;6225813;28;20915;-66
2021/12/09 06:05:52;;;;;;;14.63;11.03;;;3.00;99.90;;;;;;6226831;28;20472;-63
2021/12/09 06:08:55;;;;;;;15.03;12.40;;;3.00;99.90;;;;;;6226316;28;20443;-64
2021/12/09 06:11:59;;;;;;;13.40;10.80;;;3.00;99.90;;;;;;6226221;28;20494;-63
2021/12/09 06:15:03;;;;;;;15.30;10.80;;;3.00;99.90;;;;;;6226310;28;20455;-63
2021/12/09 06:18:10;;;;;;;15.27;11.03;;;3.10;99.90;;;;;;6230141;28;20483;-63
2021/12/09 06:21:13;;;;;;;15.63;10.40;;;3.10;99.90;;;;;;6230357;28;20475;-64
2021/12/09 06:24:18;;;;;;;13.20;10.13;;;3.00;99.90;;;;;;6232154;28;20480;-68
2021/12/09 06:27:22;;;;;;;16.60;11.13;;;3.00;99.90;;;;;;6236682;28;20463;-67
2021/12/09 06:30:26;;;;;;;14.70;10.40;;;3.00;99.90;;;;;;6236459;28;20847;-68
2021/12/09 06:33:29;;;;;;;14.27;10.90;;;3.00;99.90;;;;;;6235865;28;20482;-64
2021/12/09 06:36:32;;;;;;;16.77;12.53;;;3.00;99.90;;;;;;6230164;28;20498;-64
2021/12/09 06:39:35;;;;;;;13.83;10.40;;;3.10;99.90;;;;;;6230294;28;20768;-64
2021/12/09 06:42:40;;;;;;;15.37;10.97;;;3.10;99.90;;;;;;6230227;28;20479;-63
2021/12/09 06:45:44;;;;;;;15.50;11.17;;;3.20;99.90;;;;;;6229989;28;20468;-63
2021/12/09 06:48:47;;;;;;;18.47;12.10;;;3.20;99.90;;;;;;6229862;28;20478;-64
2021/12/09 06:51:51;;;;;;;14.73;10.93;;;3.20;99.90;;;;;;6229449;28;20468;-64
2021/12/09 06:54:54;;;;;;;15.77;12.20;;;3.20;99.90;;;;;;6229945;28;20480;-63
2021/12/09 06:57:59;;;;;;;17.50;12.57;;;3.20;99.90;;;;;;6234409;28;20480;-64
2021/12/09 07:01:03;;;;;;;15.30;12.17;;;3.20;99.90;;;;;;6233682;28;20479;-63
2021/12/09 07:04:08;;;;;;;14.33;11.67;;;3.20;99.90;;;;;;6235627;28;20971;-63
2021/12/09 07:07:12;;;;;;;13.90;11.50;;;3.20;99.90;;;;;;6231984;28;20592;-63
2021/12/09 07:10:15;;;;;;;16.43;11.43;;;3.20;99.90;;;;;;6230943;28;20490;-66
2021/12/09 07:13:20;;;;;;;18.60;11.37;;;3.20;99.90;;;;;;6229834;28;20782;-64
2021/12/09 07:16:23;;;;;;;15.53;11.67;;;3.20;99.90;;;;;;6229915;28;20520;-64
2021/12/09 07:19:26;;;;;;;14.63;11.57;;;3.20;99.90;;;;;;6229612;28;20479;-64
2021/12/09 07:22:30;;;;;;;18.57;13.13;;;3.30;99.90;;;;;;6229500;28;20467;-64
2021/12/09 07:25:33;;;;;;;14.87;13.00;;;3.40;99.90;;;;;;6227984;28;20794;-65
2021/12/09 07:28:38;;;;;;;18.30;13.07;;;3.40;99.90;;;;;;6228141;28;20812;-64
2021/12/09 07:31:42;;;;;;;16.60;11.50;;;3.40;99.90;;;;;;6229279;28;21034;-64
2021/12/09 07:34:45;;;;;;;12.50;11.17;;;3.50;99.90;;;;;;6229299;28;20479;-64
2021/12/09 07:37:48;;;;;;;11.97;9.93;;;3.50;99.90;;;;;;6229074;28;20770;-64
2021/12/09 07:40:52;;;;;;;13.40;10.50;;;3.50;99.90;;;;;;6228805;28;20467;-65
2021/12/09 07:43:56;;;;;;;15.60;12.00;;;3.60;99.90;;;;;;6224548;28;20885;-64
2021/12/09 07:47:00;;;;;;;14.40;10.47;;;3.70;99.90;;;;;;6228303;28;20479;-64
2021/12/09 07:50:07;;;;;;;16.90;11.20;;;3.70;99.90;;;;;;6228959;28;20482;-64
2021/12/09 07:53:10;;;;;;;13.10;10.90;;;3.70;99.90;;;;;;6228585;28;20937;-64
2021/12/09 07:56:13;;;;;;;11.53;10.33;;;3.70;99.90;;;;;;6228553;28;20479;-65
2021/12/09 07:59:18;;;;;;;12.37;9.77;;;3.80;99.90;;;;;;6228866;28;20476;-64
2021/12/09 08:02:22;;;;;;;15.33;10.53;;;3.70;99.90;;;;;;6228737;28;20472;-66
2021/12/09 08:05:26;;;;;;;11.43;10.00;;;3.80;99.90;;;;;;6228503;28;20468;-64
2021/12/09 08:08:29;;;;;;;11.47;10.20;;;3.80;99.90;;;;;;6228103;28;20952;-65
2021/12/09 08:11:36;;;;;;;10.63;9.53;;;3.80;99.90;;;;;;6227968;28;20559;-65
2021/12/09 08:14:41;;;;;;;11.73;10.50;;;3.80;99.90;;;;;;6227984;28;20464;-65
2021/12/09 08:18:00;;;;;;;16.17;10.53;;;3.80;99.90;;;;;;6227484;28;20471;-65
2021/12/09 08:21:04;;;;;;;11.77;10.60;;;3.70;99.90;;;;;;6227098;28;20472;-66
2021/12/09 08:24:09;;;;;;;15.83;11.60;;;3.80;99.90;;;;;;6227249;28;20781;-67
2021/12/09 08:27:12;;;;;;;11.67;10.40;;;3.70;99.90;;;;;;6228010;28;20487;-66
2021/12/09 08:30:18;;;;;;;13.87;10.90;;;3.70;99.90;;;;;;6227805;28;20471;-65
2021/12/09 08:33:42;;;;;;;13.23;11.27;;;3.80;99.90;;;;;;6226852;28;20590;-65
2021/12/09 08:37:05;;;;;;;12.17;10.63;;;3.80;99.90;;;;;;6226690;28;20472;-65
2021/12/09 08:40:09;;;;;;;17.03;12.33;;;3.90;99.90;;;;;;6226615;28;20468;-65
2021/12/09 08:43:13;;;;;;;14.87;11.17;;;3.90;99.90;;;;;;6227061;28;20475;-65
2021/12/09 08:46:17;;;;;;;12.90;11.60;;;4.00;99.90;;;;;;6226521;28;20472;-65
2021/12/09 08:49:20;;;;;;;12.20;9.90;;;4.00;99.90;;;;;;6209379;28;20483;-65
2021/12/09 08:52:24;;;;;;;11.97;10.63;;;4.10;99.90;;;;;;6220788;28;20499;-64
2021/12/09 08:55:27;;;;;;;11.03;9.93;;;4.10;99.90;;;;;;6209488;28;20472;-65
2021/12/09 08:58:30;;;;;;;11.43;10.17;;;4.20;99.90;;;;;;6225111;28;20480;-65
2021/12/09 09:01:37;;;;;;;13.10;10.57;;;4.20;99.90;;;;;;6225712;28;20472;-65
2021/12/09 09:04:41;;;;;;;14.33;12.57;;;4.30;99.90;;;;;;6226248;28;20964;-65
2021/12/09 09:07:45;;;;;;;13.03;11.57;;;4.30;99.90;;;;;;6226167;28;20463;-64
2021/12/09 09:10:49;;;;;;;13.93;12.43;;;4.20;99.90;;;;;;6226288;28;20460;-66
2021/12/09 09:13:53;;;;;;;25.27;20.57;;;4.20;99.90;;;;;;6227028;28;20990;-68
2021/12/09 09:16:57;;;;;;;21.30;18.20;;;4.20;99.90;;;;;;6227380;28;20487;-67
2021/12/09 09:20:01;;;;;;;15.27;13.23;;;4.20;99.90;;;;;;6227093;28;20467;-67
2021/12/09 09:23:04;;;;;;;19.50;15.67;;;4.20;99.90;;;;;;6226896;28;20475;-67
2021/12/09 09:26:07;;;;;;;16.87;13.63;;;4.20;99.90;;;;;;6227143;28;20499;-67
2021/12/09 09:29:11;;;;;;;13.97;12.57;;;4.20;99.90;;;;;;6227562;28;20940;-64
2021/12/09 09:32:15;;;;;;;15.40;11.80;;;4.30;99.90;;;;;;6225685;28;20806;-64
2021/12/09 09:35:19;;;;;;;13.67;11.97;;;4.30;99.90;;;;;;6225701;28;20486;-63
2021/12/09 09:38:25;;;;;;;14.40;11.77;;;4.30;99.90;;;;;;6224845;28;20559;-62
2021/12/09 09:41:33;;;;;;;17.80;13.33;;;4.30;99.90;;;;;;6226370;28;20483;-63
2021/12/09 09:44:47;;;;;;;18.30;13.43;;;4.30;99.90;;;;;;6225535;28;20487;-66
2021/12/09 09:47:52;;;;;;;16.07;12.07;;;4.30;99.90;;;;;;6225943;28;20456;-67
2021/12/09 09:50:55;;;;;;;15.80;13.37;;;4.30;99.90;;;;;;6222965;28;20432;-68
2021/12/09 09:53:59;;;;;;;15.17;13.57;;;4.40;99.90;;;;;;6227071;28;20448;-68
2021/12/09 09:57:03;;;;;;;18.50;14.90;;;4.50;99.90;;;;;;6225715;28;20475;-63
2021/12/09 10:00:08;;;;;;;13.93;12.50;;;4.60;99.90;;;;;;6225653;28;20972;-68
2021/12/09 10:03:17;;;;;;;16.33;13.37;;;4.60;99.90;;;;;;6225527;28;20974;-68
2021/12/09 10:06:22;;;;;;;16.03;14.10;;;4.70;99.90;;;;;;6227128;28;20815;-69
2021/12/09 10:09:25;;;;;;;15.07;13.53;;;4.80;99.90;;;;;;6225929;28;20791;-66
2021/12/09 10:12:28;;;;;;;14.87;13.27;;;4.80;99.90;;;;;;6224872;28;20786;-67
2021/12/09 10:15:53;;;;;;;14.37;12.97;;;4.90;99.90;;;;;;6225654;28;20476;-65
2021/12/09 10:18:57;;;;;;;16.90;13.20;;;5.00;99.90;;;;;;6221057;28;20472;-64
2021/12/09 10:22:16;;;;;;;16.23;13.10;;;5.00;99.90;;;;;;6225222;28;20475;-69
2021/12/09 10:25:23;;;;;;;16.40;13.70;;;5.00;99.90;;;;;;6225811;28;20475;-66
2021/12/09 10:28:27;;;;;;;17.70;15.17;;;5.00;99.90;;;;;;6224825;28;20544;-69
2021/12/09 10:31:35;;;;;;;15.87;13.97;;;4.90;99.90;;;;;;6225806;28;20483;-69
2021/12/09 10:34:41;;;;;;;15.03;13.43;;;4.90;99.90;;;;;;6224793;28;20829;-66
2021/12/09 10:37:45;;;;;;;19.50;17.43;;;4.90;99.90;;;;;;6225420;28;20471;-68
2021/12/09 10:40:48;;;;;;;19.93;14.87;;;5.00;99.90;;;;;;6225600;28;20476;-67
2021/12/09 10:43:52;;;;;;;15.93;14.27;;;5.00;99.90;;;;;;6225138;28;20476;-67
2021/12/09 10:47:04;;;;;;;18.57;14.80;;;4.90;99.90;;;;;;6224923;28;20475;-65
2021/12/09 10:50:18;;;;;;;14.80;13.30;;;4.90;99.90;;;;;;6225572;28;20568;-68
2021/12/09 10:53:33;;;;;;;16.03;13.17;;;4.90;99.90;;;;;;6224821;28;20477;-68
2021/12/09 10:56:36;;;;;;;14.77;12.93;;;5.00;99.90;;;;;;6219860;28;20495;-68
2021/12/09 10:59:40;;;;;;;15.20;13.67;;;5.10;99.90;;;;;;6225682;28;20467;-67
2021/12/09 11:02:59;;;;;;;16.50;14.03;;;5.10;99.90;;;;;;6227110;28;20466;-66
2021/12/09 11:06:05;;;;;;;14.97;12.43;;;5.00;99.90;;;;;;6231275;28;20468;-67
2021/12/09 11:09:12;;;;;;;17.70;14.30;;;4.90;99.90;;;;;;6229802;28;20967;-70
2021/12/09 11:12:28;;;;;;;15.97;14.37;;;4.90;99.90;;;;;;6230249;28;20471;-68
2021/12/09 11:15:47;;;;;;;23.07;20.97;;;5.00;99.90;;;;;;6230749;28;20468;-66
2021/12/09 11:18:55;;;;;;;23.20;20.90;;;5.00;99.90;;;;;;6230527;28;20479;-67
2021/12/09 11:22:02;;;;;;;19.70;17.90;;;5.00;99.90;;;;;;6230223;28;20590;-66
2021/12/09 11:25:34;;;;;;;18.67;16.83;;;5.00;99.90;;;;;;6230450;28;20824;-64
2021/12/09 11:28:37;;;;;;;16.67;14.03;;;5.10;99.90;;;;;;6228754;28;20468;-64
2021/12/09 11:31:53;;;;;;;22.13;18.37;;;5.10;99.90;;;;;;6228644;28;20472;-66
2021/12/09 11:35:01;;;;;;;21.57;19.37;;;5.10;99.90;;;;;;6228711;28;20487;-68
2021/12/09 11:38:18;;;;;;;25.17;22.47;;;5.10;99.90;;;;;;6228315;28;20483;-69
2021/12/09 11:41:34;;;;;;;20.47;18.27;;;5.10;99.90;;;;;;6228777;28;20599;-66
2021/12/09 11:44:40;;;;;;;19.10;17.10;;;5.10;99.90;;;;;;6228639;28;20487;-66
2021/12/09 11:47:45;;;;;;;21.80;18.50;;;5.10;99.90;;;;;;6227986;28;20800;-65
2021/12/09 11:50:53;;;;;;;17.77;15.80;;;5.10;99.90;;;;;;6228784;28;20435;-65
2021/12/09 11:54:00;;;;;;;15.77;14.17;;;5.00;99.90;;;;;;6228470;28;20484;-66
2021/12/09 11:57:18;;;;;;;16.50;14.63;;;5.00;99.90;;;;;;6227378;28;20507;-66
2021/12/09 12:07:31;;;;;;;17.30;13.90;;;4.60;99.90;;;;;;6227787;28;20472;-65
2021/12/09 12:14:07;;;;;;;24.63;19.73;;;4.50;99.90;;;;;;6217686;28;20477;-65
2021/12/09 12:17:27;;;;;;;21.07;17.60;;;4.30;99.90;;;;;;6227964;28;20491;-66
2021/12/09 12:20:39;;;;;;;24.30;19.00;;;4.10;99.90;;;;;;6229498;28;20476;-64
2021/12/09 12:23:52;;;;;;;25.03;19.10;;;4.00;99.90;;;;;;6232164;28;20472;-64
2021/12/09 12:27:02;;;;;;;21.20;18.40;;;4.00;99.90;;;;;;6231395;28;20460;-65
2021/12/09 12:30:26;;;;;;;20.67;17.37;;;4.10;99.90;;;;;;6229302;28;20460;-65
2021/12/09 12:37:21;;;;;;;17.03;15.30;;;4.20;99.90;;;;;;6207353;28;20468;-65
2021/12/09 12:40:31;;;;;;;18.50;15.83;;;4.30;99.90;;;;;;6229127;28;20471;-66
2021/12/09 12:43:42;;;;;;;19.23;14.97;;;4.40;99.90;;;;;;6228327;28;20983;-63
2021/12/09 12:46:55;;;;;;;20.03;17.90;;;4.50;99.90;;;;;;6228127;28;20480;-63
2021/12/09 12:50:11;;;;;;;16.67;14.90;;;4.60;99.90;;;;;;6227759;28;20530;-64
2021/12/09 12:53:39;;;;;;;20.77;17.77;;;4.60;99.90;;;;;;6226708;28;20818;-63
2021/12/09 12:56:45;;;;;;;18.40;15.10;;;4.50;99.90;;;;;;6226109;28;20576;-64
2021/12/09 13:00:08;;;;;;;23.53;17.20;;;4.50;99.90;;;;;;6226944;28;20451;-64
2021/12/09 13:03:30;;;;;;;27.00;18.80;;;4.50;99.90;;;;;;6193987;28;20461;-64
2021/12/09 13:06:47;;;;;;;23.60;17.80;;;4.40;99.90;;;;;;6226390;28;20487;-65
2021/12/09 13:10:03;;;;;;;25.23;18.43;;;4.40;99.90;;;;;;6226093;28;20468;-66
2021/12/09 13:13:17;;;;;;;22.67;19.60;;;4.40;99.90;;;;;;6210789;28;20838;-65
2021/12/09 13:16:35;;;;;;;24.90;22.23;;;4.40;99.90;;;;;;6226299;28;20487;-65
2021/12/09 13:19:52;;;;;;;21.90;18.47;;;4.30;99.90;;;;;;6226549;28;20472;-65
2021/12/09 13:23:20;;;;;;;21.97;19.40;;;4.30;99.90;;;;;;6226085;28;20472;-65
2021/12/09 13:26:28;;;;;;;20.13;18.10;;;4.20;99.90;;;;;;6225176;28;20475;-65
2021/12/09 13:29:41;;;;;;;24.80;22.07;;;3.90;99.90;;;;;;6226030;28;20558;-65
2021/12/09 13:36:38;;;;;;;24.97;22.10;;;3.80;99.90;;;;;;6222751;28;20464;-64
2021/12/09 13:40:16;;;;;;;22.03;18.83;;;4.00;99.90;;;;;;6226428;28;20982;-63
2021/12/09 13:47:00;;;;;;;27.37;20.50;;;3.90;99.90;;;;;;6205088;28;21022;-63
2021/12/09 13:50:36;;;;;;;26.20;22.53;;;4.00;99.90;;;;;;6225744;28;20472;-63
2021/12/09 13:57:03;;;;;;;22.93;20.07;;;4.10;99.90;;;;;;6224841;28;20824;-64
2021/12/09 14:00:35;;;;;;;22.00;18.17;;;4.10;99.90;;;;;;6225282;28;20578;-64
2021/12/09 14:03:38;;;;;;;20.50;16.80;;;4.10;99.90;;;;;;6225938;28;20464;-65
2021/12/09 14:06:52;;;;;;;23.73;17.60;;;4.10;99.90;;;;;;6220484;28;20956;-66
2021/12/09 14:10:01;;;;;;;20.43;16.87;;;4.00;99.90;;;;;;6225966;28;20479;-68
2021/12/09 14:13:10;;;;;;;21.60;17.30;;;3.90;99.90;;;;;;6210048;28;20484;-68
2021/12/09 14:16:26;;;;;;;24.50;17.50;;;3.90;99.90;;;;;;6225330;28;20476;-67
2021/12/09 14:20:02;;;;;;;21.60;19.10;;;3.80;99.90;;;;;;6225774;28;20472;-67
2021/12/09 14:23:08;;;;;;;27.20;22.07;;;3.70;99.90;;;;;;6224928;28;20464;-64
2021/12/09 14:26:11;;;;;;;25.80;21.37;;;3.70;99.90;;;;;;6225675;28;20483;-63
2021/12/09 14:29:14;;;;;;;25.97;21.33;;;3.70;99.90;;;;;;6225197;28;20487;-64
2021/12/09 14:32:18;;;;;;;23.57;19.90;;;3.70;99.90;;;;;;6225099;28;20479;-64
2021/12/09 14:35:24;;;;;;;25.37;22.77;;;3.70;99.90;;;;;;6224768;28;20519;-64
2021/12/09 14:38:29;;;;;;;23.03;20.57;;;3.80;99.90;;;;;;6228390;28;20472;-65
2021/12/09 14:41:34;;;;;;;24.30;19.33;;;3.80;99.90;;;;;;6229529;28;20832;-64
2021/12/09 14:44:38;;;;;;;26.37;23.23;;;3.70;99.90;;;;;;6229614;28;20475;-66
2021/12/09 14:47:53;;;;;;;28.10;24.10;;;3.80;99.90;;;;;;6252921;28;20947;-64
2021/12/09 14:50:56;;;;;;;19.13;16.97;;;3.80;99.90;;;;;;6254013;28;20454;-65
2021/12/09 14:54:07;;;;;;;20.43;18.40;;;3.70;99.90;;;;;;6254081;28;20493;-64
2021/12/09 14:57:12;;;;;;;21.67;19.33;;;3.70;99.90;;;;;;6253414;28;20805;-64
2021/12/09 15:00:27;;;;;;;22.07;19.17;;;3.80;99.90;;;;;;6251718;28;20477;-64
2021/12/09 15:03:35;;;;;;;21.20;17.27;;;3.80;99.90;;;;;;6215792;28;20510;-64
2021/12/09 15:07:00;;;;;;;18.13;16.20;;;3.80;99.90;;;;;;6252918;28;20502;-63
2021/12/09 15:10:09;;;;;;;19.80;17.27;;;3.80;99.90;;;;;;6246513;28;20847;-63
2021/12/09 15:13:13;;;;;;;19.37;16.97;;;3.80;99.90;;;;;;6228681;28;20617;-64
2021/12/09 15:16:19;;;;;;;20.23;17.43;;;3.80;99.90;;;;;;6228339;28;20484;-66
2021/12/09 15:19:23;;;;;;;19.30;17.20;;;3.80;99.90;;;;;;6228796;28;20498;-64
2021/12/09 15:22:40;;;;;;;20.07;17.47;;;3.80;99.90;;;;;;6228158;28;20490;-65
2021/12/09 15:25:48;;;;;;;20.60;17.60;;;3.80;99.90;;;;;;6227812;28;20480;-64
2021/12/09 15:29:09;;;;;;;21.30;15.67;;;3.80;99.90;;;;;;6228295;28;20480;-69
2021/12/09 15:32:12;;;;;;;19.73;14.73;;;3.70;99.90;;;;;;6228465;28;20491;-65
2021/12/09 15:35:16;;;;;;;19.13;15.57;;;3.70;99.90;;;;;;6228559;28;20975;-65
2021/12/09 15:38:22;;;;;;;19.23;17.17;;;3.70;99.90;;;;;;6228388;28;20479;-64
2021/12/09 15:41:28;;;;;;;23.70;19.20;;;3.60;99.90;;;;;;6228980;28;20486;-63
2021/12/09 15:44:36;;;;;;;20.00;17.27;;;3.50;99.90;;;;;;6227915;28;20476;-63
2021/12/09 15:47:39;;;;;;;22.07;17.47;;;3.50;99.90;;;;;;6228478;28;20476;-64
2021/12/09 15:50:43;;;;;;;25.63;20.17;;;3.30;99.90;;;;;;6227084;28;20491;-62
2021/12/09 15:53:49;;;;;;;23.90;19.17;;;3.20;99.90;;;;;;6228097;28;20483;-63
2021/12/09 15:56:57;;;;;;;26.57;20.17;;;3.30;99.90;;;;;;6228122;28;20494;-63
2021/12/09 16:00:01;;;;;;;30.37;19.60;;;3.30;99.90;;;;;;6228808;28;20439;-63
2021/12/09 16:03:07;;;;;;;21.73;19.43;;;3.30;99.90;;;;;;6228846;28;20454;-63
2021/12/09 16:06:10;;;;;;;21.90;17.40;;;3.30;99.90;;;;;;6213963;28;20468;-63
2021/12/09 16:09:15;;;;;;;19.07;16.20;;;3.30;99.90;;;;;;6228165;28;20456;-64
2021/12/09 16:12:24;;;;;;;22.23;18.30;;;3.20;99.90;;;;;;6227404;28;20463;-64
2021/12/09 16:15:28;;;;;;;26.90;18.87;;;3.20;99.90;;;;;;6227943;28;20491;-65
2021/12/09 16:18:39;;;;;;;22.07;19.57;;;3.20;99.90;;;;;;6228004;28;20479;-63
2021/12/09 16:21:55;;;;;;;24.07;20.60;;;3.30;99.90;;;;;;6227737;28;20542;-64
2021/12/09 16:25:06;;;;;;;21.13;18.80;;;3.40;99.90;;;;;;6227530;28;20486;-64
2021/12/09 16:28:11;;;;;;;25.47;19.03;;;3.40;99.90;;;;;;6227271;28;20491;-64